createdAt,value
2023-02-19T00:00:17.062Z,63.47
2023-02-19T00:01:22.481Z,64.35
2023-02-19T00:02:24.502Z,63.47
2023-02-19T00:03:27.621Z,64.53
2023-02-19T00:04:29.843Z,63.87
2023-02-19T00:05:32.819Z,64.08
2023-02-19T00:06:36.206Z,63.60
2023-02-19T00:07:39.194Z,63.51
2023-02-19T00:08:41.171Z,64.45
2023-02-19T00:09:44.173Z,64.35
2023-02-19T00:10:47.558Z,64.57
2023-02-19T00:11:50.569Z,64.35
2023-02-19T00:12:52.556Z,63.84
2023-02-19T00:13:57.461Z,64.54
2023-02-19T00:15:00.525Z,64.36
2023-02-19T00:16:06.316Z,64.60
2023-02-19T00:17:09.322Z,63.92
2023-02-19T00:18:11.375Z,64.64
2023-02-19T00:19:20.432Z,63.74
2023-02-19T00:20:22.416Z,63.75
2023-02-19T00:21:26.283Z,63.63
2023-02-19T00:22:28.254Z,63.93
2023-02-19T00:23:31.586Z,64.22
2023-02-19T00:24:34.544Z,64.45
2023-02-19T00:25:36.913Z,63.96
2023-02-19T00:26:42.511Z,63.95
2023-02-19T00:27:44.530Z,64.03
2023-02-19T00:28:48.638Z,64.61
2023-02-19T00:29:50.733Z,64.35
2023-02-19T00:30:53.715Z,64.66
2023-02-19T00:31:55.853Z,64.32
2023-02-19T00:32:58.939Z,63.72
2023-02-19T00:34:03.844Z,64.39
2023-02-19T00:35:07.318Z,64.68
2023-02-19T00:36:28.051Z,64.78
2023-02-19T00:37:31.110Z,64.26
2023-02-19T00:38:36.847Z,63.84
2023-02-19T00:39:39.818Z,64.58
2023-02-19T00:40:41.754Z,64.50
2023-02-19T00:41:46.478Z,64.74
2023-02-19T00:42:48.701Z,64.51
2023-02-19T00:43:54.133Z,63.71
2023-02-19T00:44:56.638Z,63.61
2023-02-19T00:45:59.527Z,63.69
2023-02-19T00:47:02.483Z,64.25
2023-02-19T00:48:06.184Z,64.05
2023-02-19T00:49:10.044Z,64.21
2023-02-19T00:50:12.238Z,63.66
2023-02-19T00:51:16.502Z,64.10
2023-02-19T00:52:18.435Z,64.11
2023-02-19T00:53:21.539Z,63.97
2023-02-19T00:54:24.858Z,64.08
2023-02-19T00:55:27.011Z,64.02
2023-02-19T00:56:31.041Z,64.59
2023-02-19T00:57:34.723Z,64.03
2023-02-19T00:58:41.509Z,64.75
2023-02-19T00:59:44.470Z,64.79
2023-02-19T01:00:46.967Z,63.64
2023-02-19T01:01:50.743Z,63.92
2023-02-19T01:02:52.946Z,63.50
2023-02-19T01:03:56.041Z,64.77
2023-02-19T01:04:58.054Z,64.58
2023-02-19T01:06:02.225Z,64.02
2023-02-19T01:07:04.290Z,64.97
2023-02-19T01:08:07.339Z,64.64
2023-02-19T01:09:10.345Z,64.57
2023-02-19T01:10:12.354Z,64.09
2023-02-19T01:11:16.403Z,64.34
2023-02-19T01:12:18.381Z,64.69
2023-02-19T01:13:22.663Z,64.18
2023-02-19T01:14:24.653Z,64.34
2023-02-19T01:15:27.614Z,64.70
2023-02-19T01:16:30.997Z,64.63
2023-02-19T01:17:37.210Z,63.98
2023-02-19T01:18:39.996Z,63.91
2023-02-19T01:19:43.930Z,64.68
2023-02-19T01:20:46.598Z,63.65
2023-02-19T01:21:49.634Z,64.30
2023-02-19T01:22:51.662Z,64.27
2023-02-19T01:23:55.329Z,63.72
2023-02-19T01:24:57.771Z,64.94
2023-02-19T01:26:00.857Z,63.88
2023-02-19T01:27:02.879Z,64.87
2023-02-19T01:28:06.004Z,64.07
2023-02-19T01:29:10.059Z,63.94
2023-02-19T01:30:13.981Z,64.85
2023-02-19T01:31:18.373Z,64.65
2023-02-19T01:32:21.716Z,64.37
2023-02-19T01:33:23.713Z,64.74
2023-02-19T01:34:27.025Z,64.52
2023-02-19T01:35:29.031Z,65.12
2023-02-19T01:36:34.779Z,64.65
2023-02-19T01:37:37.351Z,64.97
2023-02-19T01:38:40.326Z,64.42
2023-02-19T01:39:42.348Z,63.95
2023-02-19T01:40:45.289Z,64.36
2023-02-19T01:41:47.259Z,64.27
2023-02-19T01:42:50.340Z,65.21
2023-02-19T01:43:58.066Z,64.53
2023-02-19T01:45:23.068Z,64.77
2023-02-19T01:46:26.277Z,64.51
2023-02-19T01:47:29.342Z,64.22
2023-02-19T01:48:36.084Z,64.04
2023-02-19T01:49:48.587Z,64.52
2023-02-19T01:50:55.386Z,64.13
2023-02-19T01:52:00.431Z,64.35
2023-02-19T01:53:07.454Z,64.37
2023-02-19T01:54:13.168Z,65.17
2023-02-19T01:55:16.586Z,65.22
2023-02-19T01:56:20.359Z,64.90
2023-02-19T01:57:26.505Z,64.86
2023-02-19T01:58:33.678Z,65.31
2023-02-19T01:59:37.072Z,65.17
2023-02-19T02:00:40.918Z,64.37
2023-02-19T02:01:43.982Z,65.05
2023-02-19T02:02:52.493Z,64.47
2023-02-19T02:03:55.610Z,65.22
2023-02-19T02:05:00.184Z,64.48
2023-02-19T02:06:05.775Z,65.65
2023-02-19T02:07:28.519Z,65.43
2023-02-19T02:08:50.892Z,65.54
2023-02-19T02:10:15.016Z,65.75
2023-02-19T02:11:18.520Z,64.77
2023-02-19T02:12:20.547Z,65.61
2023-02-19T02:13:23.543Z,65.14
2023-02-19T02:14:29.470Z,65.98
2023-02-19T02:15:40.655Z,65.49
2023-02-19T02:16:53.492Z,65.62
2023-02-19T02:17:59.460Z,65.01
2023-02-19T02:19:14.972Z,66.12
2023-02-19T02:20:33.521Z,66.31
2023-02-19T02:22:06.839Z,65.75
2023-02-19T02:23:16.890Z,66.17
2023-02-19T02:24:38.360Z,65.96
2023-02-19T02:25:58.959Z,65.79
2023-02-19T02:27:23.795Z,65.62
2023-02-19T02:28:51.886Z,65.77
2023-02-19T02:30:23.912Z,64.95
2023-02-19T02:31:30.687Z,65.56
2023-02-19T02:32:38.019Z,65.24
2023-02-19T02:33:44.889Z,65.69
2023-02-19T02:34:53.859Z,65.07
2023-02-19T02:35:59.460Z,66.07
2023-02-19T02:37:05.430Z,65.75
2023-02-19T02:38:10.200Z,66.34
2023-02-19T02:39:16.444Z,66.43
2023-02-19T02:40:19.838Z,67.31
2023-02-19T02:41:23.046Z,67.15
2023-02-19T02:42:27.640Z,67.54
2023-02-19T02:43:39.119Z,67.99
2023-02-19T02:44:42.091Z,68.55
2023-02-19T02:45:46.379Z,68.11
2023-02-19T02:46:55.910Z,69.02
2023-02-19T02:47:59.733Z,68.79
2023-02-19T02:49:05.486Z,68.82
2023-02-19T02:50:15.133Z,68.29
2023-02-19T02:51:23.957Z,69.29
2023-02-19T02:52:57.650Z,68.57
2023-02-19T02:54:23.449Z,69.40
2023-02-19T02:55:31.337Z,70.50
2023-02-19T02:56:35.950Z,70.76
2023-02-19T02:57:38.648Z,70.14
2023-02-19T02:58:42.412Z,70.61
2023-02-19T02:59:49.073Z,70.96
2023-02-19T03:01:18.738Z,71.07
2023-02-19T03:02:26.891Z,70.31
2023-02-19T03:03:32.562Z,70.10
2023-02-19T03:05:03.229Z,70.91
2023-02-19T03:06:12.147Z,70.40
2023-02-19T03:07:15.898Z,70.51
2023-02-19T03:08:24.868Z,70.23
2023-02-19T03:09:40.444Z,70.65
2023-02-19T03:10:48.502Z,69.96
2023-02-19T03:12:11.079Z,69.72
2023-02-19T03:13:47.402Z,69.06
2023-02-19T03:15:11.941Z,69.77
2023-02-19T03:16:38.872Z,70.48
2023-02-19T03:18:05.708Z,69.72
2023-02-19T03:19:30.666Z,69.28
2023-02-19T03:20:37.871Z,69.27
2023-02-19T03:21:43.768Z,69.39
2023-02-19T03:22:50.112Z,69.16
2023-02-19T03:24:12.400Z,69.73
2023-02-19T03:25:37.339Z,69.46
2023-02-19T03:26:43.117Z,69.62
2023-02-19T03:27:49.783Z,70.61
2023-02-19T03:29:12.590Z,69.47
2023-02-19T03:30:22.639Z,70.80
2023-02-19T03:31:30.114Z,70.07
2023-02-19T03:32:40.366Z,71.19
2023-02-19T03:33:46.137Z,71.11
2023-02-19T03:34:53.803Z,69.87
2023-02-19T03:36:00.799Z,70.53
2023-02-19T03:37:21.703Z,69.86
2023-02-19T03:38:28.165Z,70.30
2023-02-19T03:39:31.981Z,70.61
2023-02-19T03:40:56.187Z,70.50
2023-02-19T03:42:06.062Z,70.85
2023-02-19T03:43:18.076Z,71.11
2023-02-19T03:44:27.593Z,70.39
2023-02-19T03:45:38.998Z,70.62
2023-02-19T03:46:51.957Z,70.49
2023-02-19T03:48:04.570Z,71.23
2023-02-19T03:49:18.660Z,71.18
2023-02-19T03:50:28.546Z,70.40
2023-02-19T03:51:39.046Z,71.42
2023-02-19T03:52:54.115Z,71.20
2023-02-19T03:54:10.620Z,71.56
2023-02-19T03:55:18.109Z,71.50
2023-02-19T03:56:30.539Z,71.73
2023-02-19T03:57:40.552Z,72.66
2023-02-19T03:58:52.109Z,71.91
2023-02-19T04:00:01.172Z,71.50
2023-02-19T04:01:07.412Z,71.72
2023-02-19T04:02:14.756Z,72.00
2023-02-19T04:03:21.040Z,71.37
2023-02-19T04:04:28.941Z,71.48
2023-02-19T04:05:33.335Z,71.30
2023-02-19T04:06:38.960Z,71.64
2023-02-19T04:07:45.263Z,72.50
2023-02-19T04:08:54.014Z,72.50
2023-02-19T04:09:56.623Z,72.12
2023-02-19T04:11:01.238Z,71.79
2023-02-19T04:12:07.666Z,72.18
2023-02-19T04:13:16.168Z,72.94
2023-02-19T04:14:23.194Z,72.10
2023-02-19T04:15:30.275Z,72.05
2023-02-19T04:16:36.684Z,72.67
2023-02-19T04:17:53.599Z,73.40
2023-02-19T04:19:00.760Z,72.19
2023-02-19T04:20:08.041Z,72.92
2023-02-19T04:21:12.064Z,73.19
2023-02-19T04:22:16.204Z,72.45
2023-02-19T04:23:24.220Z,73.14
2023-02-19T04:24:31.212Z,72.42
2023-02-19T04:25:35.747Z,72.93
2023-02-19T04:26:38.319Z,72.67
2023-02-19T04:27:42.037Z,72.93
2023-02-19T04:28:44.239Z,72.81
2023-02-19T04:29:47.219Z,72.24
2023-02-19T04:30:49.293Z,72.93
2023-02-19T04:31:52.272Z,72.45
2023-02-19T04:32:55.464Z,72.31
2023-02-19T04:33:58.387Z,71.78
2023-02-19T04:35:00.375Z,72.46
2023-02-19T04:36:03.257Z,72.63
2023-02-19T04:37:06.701Z,72.63
2023-02-19T04:38:08.657Z,71.46
2023-02-19T04:39:11.646Z,72.60
2023-02-19T04:40:13.669Z,72.28
2023-02-19T04:41:16.555Z,71.58
2023-02-19T04:42:18.641Z,72.23
2023-02-19T04:43:21.718Z,72.24
2023-02-19T04:44:23.665Z,71.91
2023-02-19T04:45:26.548Z,72.18
2023-02-19T04:46:28.534Z,71.99
2023-02-19T04:47:32.767Z,71.93
2023-02-19T04:48:36.020Z,72.60
2023-02-19T04:49:38.918Z,71.54
2023-02-19T04:50:40.964Z,71.39
2023-02-19T04:51:43.963Z,71.59
2023-02-19T04:52:49.140Z,72.08
2023-02-19T04:53:52.047Z,71.47
2023-02-19T04:54:54.101Z,71.56
2023-02-19T04:55:56.960Z,72.54
2023-02-19T04:56:58.946Z,71.57
2023-02-19T04:58:01.856Z,72.67
2023-02-19T04:59:03.839Z,71.48
2023-02-19T05:00:08.384Z,71.76
2023-02-19T05:01:11.284Z,71.83
2023-02-19T05:02:14.291Z,72.49
2023-02-19T05:03:16.171Z,71.90
2023-02-19T05:04:20.518Z,71.12
2023-02-19T05:05:22.546Z,71.88
2023-02-19T05:06:25.449Z,72.64
2023-02-19T05:07:27.415Z,71.63
2023-02-19T05:08:30.291Z,72.19
2023-02-19T05:09:32.298Z,71.85
2023-02-19T05:10:35.234Z,72.01
2023-02-19T05:11:37.450Z,72.86
2023-02-19T05:12:40.333Z,71.98
2023-02-19T05:13:42.266Z,71.98
2023-02-19T05:14:45.197Z,72.70
2023-02-19T05:15:55.337Z,71.98
2023-02-19T05:16:58.571Z,71.88
2023-02-19T05:18:00.537Z,72.53
2023-02-19T05:19:03.430Z,72.15
2023-02-19T05:20:07.760Z,72.39
2023-02-19T05:21:11.972Z,72.16
2023-02-19T05:22:14.066Z,71.19
2023-02-19T05:23:16.951Z,71.98
2023-02-19T05:24:19.200Z,72.53
2023-02-19T05:25:22.095Z,71.76
2023-02-19T05:26:24.136Z,71.61
2023-02-19T05:27:27.186Z,71.88
2023-02-19T05:28:29.136Z,72.37
2023-02-19T05:29:32.606Z,71.72
2023-02-19T05:30:35.511Z,71.29
2023-02-19T05:31:38.652Z,71.97
2023-02-19T05:32:40.577Z,71.51
2023-02-19T05:33:44.295Z,72.24
2023-02-19T05:34:46.160Z,71.62
2023-02-19T05:35:51.724Z,71.99
2023-02-19T05:36:53.614Z,72.18
2023-02-19T05:37:56.811Z,72.45
2023-02-19T05:38:59.018Z,72.67
2023-02-19T05:40:01.921Z,72.55
2023-02-19T05:41:09.608Z,72.29
2023-02-19T05:42:14.834Z,72.42
2023-02-19T05:43:17.275Z,72.10
2023-02-19T05:44:20.139Z,72.03
2023-02-19T05:45:22.005Z,72.45
2023-02-19T05:46:26.555Z,71.69
2023-02-19T05:47:28.522Z,72.44
2023-02-19T05:48:31.353Z,71.88
2023-02-19T05:49:33.289Z,71.79
2023-02-19T05:50:39.829Z,71.27
2023-02-19T05:51:52.782Z,72.67
2023-02-19T05:52:54.662Z,71.71
2023-02-19T05:53:58.561Z,71.96
2023-02-19T05:55:00.439Z,71.46
2023-02-19T05:56:03.872Z,72.30
2023-02-19T05:57:05.757Z,71.82
2023-02-19T05:58:08.778Z,72.31
2023-02-19T05:59:16.480Z,71.08
2023-02-19T06:00:20.792Z,71.86
2023-02-19T06:01:25.289Z,71.86
2023-02-19T06:02:28.148Z,71.69
2023-02-19T06:03:30.173Z,71.08
2023-02-19T06:04:33.080Z,71.71
2023-02-19T06:05:35.027Z,71.19
2023-02-19T06:06:38.176Z,71.09
2023-02-19T06:07:42.932Z,70.93
2023-02-19T06:08:46.104Z,71.13
2023-02-19T06:09:50.444Z,71.41
2023-02-19T06:10:53.317Z,72.39
2023-02-19T06:11:56.196Z,72.23
2023-02-19T06:12:58.125Z,72.24
2023-02-19T06:14:01.228Z,72.33
2023-02-19T06:15:04.654Z,71.52
2023-02-19T06:16:08.895Z,71.91
2023-02-19T06:17:10.982Z,71.98
2023-02-19T06:18:13.864Z,71.77
2023-02-19T06:19:15.781Z,71.58
2023-02-19T06:20:18.982Z,72.34
2023-02-19T06:21:21.027Z,71.63
2023-02-19T06:22:23.907Z,71.99
2023-02-19T06:23:29.072Z,71.27
2023-02-19T06:24:32.431Z,71.40
2023-02-19T06:25:34.333Z,72.18
2023-02-19T06:26:37.887Z,71.05
2023-02-19T06:27:39.866Z,71.17
2023-02-19T06:28:43.319Z,71.25
2023-02-19T06:29:46.306Z,71.63
2023-02-19T06:30:50.102Z,71.84
2023-02-19T06:31:54.512Z,72.30
2023-02-19T06:32:56.522Z,72.03
2023-02-19T06:33:59.389Z,72.13
2023-02-19T06:35:01.353Z,71.77
2023-02-19T06:36:05.789Z,71.86
2023-02-19T06:37:07.917Z,71.73
2023-02-19T06:38:10.930Z,71.59
2023-02-19T06:39:15.192Z,71.41
2023-02-19T06:40:17.230Z,71.60
2023-02-19T06:41:20.702Z,71.73
2023-02-19T06:42:22.728Z,71.57
2023-02-19T06:43:25.594Z,71.56
2023-02-19T06:44:27.706Z,71.35
2023-02-19T06:45:30.566Z,71.87
2023-02-19T06:46:32.504Z,70.99
2023-02-19T06:47:35.466Z,71.24
2023-02-19T06:48:39.377Z,70.93
2023-02-19T06:49:42.302Z,71.18
2023-02-19T06:50:44.176Z,71.52
2023-02-19T06:51:47.128Z,71.02
2023-02-19T06:52:49.102Z,71.88
2023-02-19T06:53:52.011Z,71.59
2023-02-19T06:54:55.298Z,71.24
2023-02-19T06:55:59.467Z,71.96
2023-02-19T06:57:01.922Z,71.42
2023-02-19T06:58:05.026Z,71.20
2023-02-19T06:59:08.592Z,71.53
2023-02-19T07:00:12.374Z,71.02
2023-02-19T07:01:14.308Z,71.70
2023-02-19T07:02:17.198Z,71.82
2023-02-19T07:03:19.111Z,71.80
2023-02-19T07:04:22.072Z,71.76
2023-02-19T07:05:23.985Z,70.97
2023-02-19T07:06:27.766Z,71.27
2023-02-19T07:07:29.774Z,71.91
2023-02-19T07:08:32.752Z,71.75
2023-02-19T07:09:34.687Z,71.70
2023-02-19T07:10:38.930Z,71.28
2023-02-19T07:11:41.241Z,72.15
2023-02-19T07:12:44.508Z,72.23
2023-02-19T07:13:46.820Z,72.41
2023-02-19T07:14:49.761Z,71.96
2023-02-19T07:15:57.073Z,71.72
2023-02-19T07:17:20.077Z,71.21
2023-02-19T07:18:22.986Z,72.01
2023-02-19T07:19:25.845Z,71.70
2023-02-19T07:20:27.750Z,71.49
2023-02-19T07:21:31.118Z,71.96
2023-02-19T07:22:33.041Z,72.50
2023-02-19T07:23:36.270Z,71.61
2023-02-19T07:24:39.170Z,72.68
2023-02-19T07:25:42.456Z,72.26
2023-02-19T07:26:45.328Z,72.13
2023-02-19T07:27:47.187Z,72.44
2023-02-19T07:28:52.498Z,71.56
2023-02-19T07:29:54.426Z,71.91
2023-02-19T07:31:01.849Z,71.92
2023-02-19T07:32:04.216Z,71.79
2023-02-19T07:33:10.353Z,72.36
2023-02-19T07:34:12.487Z,72.05
2023-02-19T07:35:15.549Z,71.54
2023-02-19T07:36:18.754Z,71.39
2023-02-19T07:37:21.630Z,72.15
2023-02-19T07:38:25.248Z,71.42
2023-02-19T07:39:28.166Z,71.68
2023-02-19T07:40:30.077Z,72.27
2023-02-19T07:41:34.415Z,71.90
2023-02-19T07:42:36.543Z,71.36
2023-02-19T07:43:40.456Z,72.17
2023-02-19T07:44:42.379Z,72.79
2023-02-19T07:45:45.540Z,71.64
2023-02-19T07:46:47.438Z,72.43
2023-02-19T07:47:50.289Z,72.38
2023-02-19T07:48:52.218Z,71.62
2023-02-19T07:49:55.057Z,72.35
2023-02-19T07:50:58.566Z,72.05
2023-02-19T07:52:02.869Z,72.68
2023-02-19T07:53:05.318Z,72.72
2023-02-19T07:54:08.568Z,72.30
2023-02-19T07:55:10.522Z,71.96
2023-02-19T07:56:14.233Z,72.74
2023-02-19T07:57:17.686Z,72.04
2023-02-19T07:58:20.706Z,73.18
2023-02-19T07:59:22.867Z,72.54
2023-02-19T08:00:25.868Z,72.56
2023-02-19T08:01:42.586Z,72.06
2023-02-19T08:03:03.166Z,73.05
2023-02-19T08:04:06.372Z,73.07
2023-02-19T08:05:08.465Z,72.20
2023-02-19T08:06:12.387Z,73.15
2023-02-19T08:07:14.291Z,72.75
2023-02-19T08:08:17.960Z,72.79
2023-02-19T08:09:19.877Z,72.65
2023-02-19T08:10:40.118Z,72.00
2023-02-19T08:12:00.599Z,72.58
2023-02-19T08:13:22.406Z,73.32
2023-02-19T08:14:26.310Z,72.76
2023-02-19T08:15:28.251Z,72.59
2023-02-19T08:16:42.544Z,73.00
2023-02-19T08:17:45.039Z,72.83
2023-02-19T08:18:48.602Z,74.09
2023-02-19T08:19:50.520Z,72.59
2023-02-19T08:20:53.532Z,72.73
2023-02-19T08:21:55.453Z,73.28
2023-02-19T08:22:58.398Z,72.80
2023-02-19T08:24:01.421Z,73.03
2023-02-19T08:25:03.712Z,72.97
2023-02-19T08:26:07.632Z,73.66
2023-02-19T08:27:09.615Z,73.62
2023-02-19T08:28:14.615Z,73.25
2023-02-19T08:29:17.579Z,72.92
2023-02-19T08:30:19.676Z,73.69
2023-02-19T08:31:22.887Z,73.45
2023-02-19T08:32:25.003Z,72.98
2023-02-19T08:33:28.625Z,73.45
2023-02-19T08:34:30.552Z,74.05
2023-02-19T08:35:35.367Z,73.36
2023-02-19T08:36:39.176Z,72.60
2023-02-19T08:37:41.280Z,72.98
2023-02-19T08:38:44.784Z,73.57
2023-02-19T08:39:47.356Z,72.74
2023-02-19T08:40:50.243Z,72.49
2023-02-19T08:41:52.223Z,73.45
2023-02-19T08:42:55.276Z,73.12
2023-02-19T08:43:59.460Z,72.54
2023-02-19T08:45:01.419Z,73.71
2023-02-19T08:46:07.085Z,73.94
2023-02-19T08:47:09.251Z,73.90
2023-02-19T08:48:12.825Z,73.97
2023-02-19T08:49:16.430Z,72.99
2023-02-19T08:50:18.545Z,74.01
2023-02-19T08:51:21.464Z,73.35
2023-02-19T08:52:23.363Z,72.83
2023-02-19T08:53:26.716Z,73.79
2023-02-19T08:54:29.691Z,73.27
2023-02-19T08:55:32.134Z,74.17
2023-02-19T08:56:35.162Z,74.60
2023-02-19T08:57:37.667Z,74.21
2023-02-19T08:58:41.253Z,73.92
2023-02-19T08:59:44.564Z,73.18
2023-02-19T09:00:48.510Z,72.81
2023-02-19T09:01:52.846Z,73.63
2023-02-19T09:02:54.865Z,73.13
2023-02-19T09:03:59.001Z,73.08
2023-02-19T09:05:01.083Z,73.68
2023-02-19T09:06:04.476Z,73.61
2023-02-19T09:07:09.540Z,74.18
2023-02-19T09:08:11.458Z,74.68
2023-02-19T09:09:14.344Z,74.39
2023-02-19T09:10:16.327Z,74.09
2023-02-19T09:11:19.313Z,73.48
2023-02-19T09:12:21.279Z,73.73
2023-02-19T09:13:24.127Z,73.20
2023-02-19T09:14:26.030Z,73.95
2023-02-19T09:15:30.652Z,74.67
2023-02-19T09:16:32.610Z,74.40
2023-02-19T09:17:35.691Z,73.92
2023-02-19T09:18:38.657Z,73.77
2023-02-19T09:19:40.631Z,74.13
2023-02-19T09:20:43.540Z,74.17
2023-02-19T09:21:45.560Z,74.33
2023-02-19T09:22:48.498Z,74.25
2023-02-19T09:23:51.454Z,74.11
2023-02-19T09:24:54.405Z,73.96
2023-02-19T09:26:01.351Z,73.49
2023-02-19T09:27:04.373Z,72.85
2023-02-19T09:28:06.675Z,73.79
2023-02-19T09:29:09.688Z,73.01
2023-02-19T09:30:12.024Z,73.29
2023-02-19T09:31:17.398Z,71.26
2023-02-19T09:32:19.508Z,71.48
2023-02-19T09:33:22.694Z,71.04
2023-02-19T09:34:24.878Z,71.64
2023-02-19T09:35:27.722Z,71.64
2023-02-19T09:36:30.652Z,70.92
2023-02-19T09:37:34.154Z,70.00
2023-02-19T09:38:37.128Z,70.34
2023-02-19T09:39:39.090Z,70.86
2023-02-19T09:40:42.124Z,70.22
2023-02-19T09:41:46.635Z,70.20
2023-02-19T09:42:51.567Z,71.35
2023-02-19T09:43:53.751Z,71.17
2023-02-19T09:45:00.289Z,71.71
2023-02-19T09:46:07.869Z,71.01
2023-02-19T09:47:18.359Z,70.34
2023-02-19T09:48:20.364Z,70.30
2023-02-19T09:49:29.102Z,70.59
2023-02-19T09:50:36.277Z,70.21
2023-02-19T09:51:42.710Z,70.62
2023-02-19T09:52:49.385Z,69.97
2023-02-19T09:53:52.356Z,70.21
2023-02-19T09:54:59.411Z,70.06
2023-02-19T09:56:01.758Z,68.86
2023-02-19T09:57:05.802Z,69.15
2023-02-19T09:58:21.783Z,69.36
2023-02-19T09:59:27.279Z,69.33
2023-02-19T10:00:34.032Z,68.82
2023-02-19T10:01:40.457Z,69.03
2023-02-19T10:02:44.718Z,67.42
2023-02-19T10:03:49.845Z,67.44
2023-02-19T10:04:52.887Z,67.47
2023-02-19T10:05:56.542Z,67.17
2023-02-19T10:07:03.731Z,66.05
2023-02-19T10:08:10.759Z,67.58
2023-02-19T10:09:22.176Z,67.81
2023-02-19T10:10:34.333Z,66.73
2023-02-19T10:11:37.659Z,65.68
2023-02-19T10:12:44.272Z,65.51
2023-02-19T10:13:51.039Z,65.31
2023-02-19T10:14:59.976Z,65.73
2023-02-19T10:16:06.068Z,64.39
2023-02-19T10:17:25.490Z,66.37
2023-02-19T10:18:37.149Z,66.46
2023-02-19T10:19:40.090Z,66.51
2023-02-19T10:20:41.997Z,66.87
2023-02-19T10:21:45.552Z,65.75
2023-02-19T10:22:47.436Z,66.26
2023-02-19T10:23:55.022Z,64.99
2023-02-19T10:24:58.582Z,66.23
2023-02-19T10:26:01.129Z,65.26
2023-02-19T10:27:04.046Z,65.64
2023-02-19T10:28:14.416Z,66.25
2023-02-19T10:29:17.410Z,66.17
2023-02-19T10:30:23.037Z,66.36
2023-02-19T10:31:27.126Z,65.66
2023-02-19T10:32:29.796Z,66.04
2023-02-19T10:33:34.828Z,66.20
2023-02-19T10:34:36.820Z,65.41
2023-02-19T10:35:53.997Z,64.69
2023-02-19T10:36:56.359Z,64.46
2023-02-19T10:37:59.525Z,65.17
2023-02-19T10:39:04.039Z,64.73
2023-02-19T10:40:12.835Z,64.73
2023-02-19T10:41:18.567Z,65.62
2023-02-19T10:42:23.260Z,64.37
2023-02-19T10:43:33.000Z,65.59
2023-02-19T10:44:43.690Z,65.50
2023-02-19T10:45:47.803Z,65.25
2023-02-19T10:46:55.305Z,64.91
2023-02-19T10:47:58.679Z,65.23
2023-02-19T10:49:06.430Z,64.74
2023-02-19T10:50:21.612Z,64.02
2023-02-19T10:51:32.410Z,64.38
2023-02-19T10:52:36.650Z,64.60
2023-02-19T10:53:43.652Z,63.61
2023-02-19T10:54:46.831Z,62.94
2023-02-19T10:55:49.822Z,64.67
2023-02-19T10:56:52.719Z,62.11
2023-02-19T10:57:55.651Z,62.84
2023-02-19T10:59:16.768Z,62.01
2023-02-19T11:00:26.888Z,61.92
2023-02-19T11:01:29.873Z,62.53
2023-02-19T11:02:32.946Z,61.37
2023-02-19T11:03:34.854Z,61.62
2023-02-19T11:04:39.291Z,60.84
2023-02-19T11:05:56.097Z,61.88
2023-02-19T11:06:58.959Z,61.79
2023-02-19T11:08:01.051Z,62.10
2023-02-19T11:09:04.387Z,63.49
2023-02-19T11:10:07.302Z,62.24
2023-02-19T11:11:10.620Z,62.26
2023-02-19T11:12:15.246Z,61.97
2023-02-19T11:13:27.438Z,61.47
2023-02-19T11:14:33.037Z,61.67
2023-02-19T11:15:36.065Z,61.22
2023-02-19T11:16:42.193Z,61.40
2023-02-19T11:17:45.306Z,60.67
2023-02-19T11:18:57.027Z,60.80
2023-02-19T11:20:08.401Z,60.29
2023-02-19T11:21:25.874Z,62.66
2023-02-19T11:22:32.693Z,62.85
2023-02-19T11:23:37.094Z,62.03
2023-02-19T11:24:40.629Z,62.88
2023-02-19T11:25:46.703Z,62.26
2023-02-19T11:26:49.977Z,63.28
2023-02-19T11:28:03.955Z,62.32
2023-02-19T11:29:19.680Z,62.64
2023-02-19T11:30:36.256Z,61.74
2023-02-19T11:31:39.554Z,63.38
2023-02-19T11:32:41.519Z,62.43
2023-02-19T11:33:55.393Z,62.56
2023-02-19T11:35:22.670Z,63.03
2023-02-19T11:36:34.264Z,64.07
2023-02-19T11:37:36.224Z,63.95
2023-02-19T11:38:39.062Z,64.47
2023-02-19T11:39:44.253Z,65.03
2023-02-19T11:40:55.792Z,65.06
2023-02-19T11:42:22.921Z,64.38
2023-02-19T11:43:49.200Z,63.94
2023-02-19T11:45:08.062Z,63.98
2023-02-19T11:46:18.235Z,63.51
2023-02-19T11:47:50.270Z,63.09
2023-02-19T11:48:55.849Z,61.32
2023-02-19T11:50:09.337Z,61.24
2023-02-19T11:51:30.269Z,61.14
2023-02-19T11:52:38.730Z,61.52
2023-02-19T11:53:49.781Z,61.04
2023-02-19T11:54:58.226Z,61.69
2023-02-19T11:56:14.030Z,61.46
2023-02-19T11:57:30.277Z,61.22
2023-02-19T11:58:48.579Z,61.00
2023-02-19T12:00:02.147Z,61.03
2023-02-19T12:01:18.106Z,62.10
2023-02-19T12:02:39.071Z,60.52
2023-02-19T12:04:06.133Z,60.61
2023-02-19T12:05:38.477Z,61.58
2023-02-19T12:06:56.345Z,59.77
2023-02-19T12:08:20.221Z,61.64
2023-02-19T12:09:36.523Z,61.38
2023-02-19T12:10:49.744Z,61.09
2023-02-19T12:12:06.443Z,60.15
2023-02-19T12:13:20.634Z,60.62
2023-02-19T12:15:02.208Z,60.22
2023-02-19T12:16:15.944Z,60.58
2023-02-19T12:17:55.563Z,61.11
2023-02-19T12:19:23.794Z,61.40
2023-02-19T12:20:34.845Z,60.66
2023-02-19T12:21:54.380Z,60.80
2023-02-19T12:23:10.611Z,61.15
2023-02-19T12:24:28.875Z,62.63
2023-02-19T12:25:56.869Z,61.23
2023-02-19T12:27:09.498Z,62.32
2023-02-19T12:28:29.515Z,62.28
2023-02-19T12:29:52.317Z,62.44
2023-02-19T12:31:08.910Z,62.76
2023-02-19T12:32:28.397Z,63.81
2023-02-19T12:33:58.722Z,63.58
2023-02-19T12:35:15.583Z,64.03
2023-02-19T12:36:27.989Z,63.51
2023-02-19T12:37:41.645Z,63.88
2023-02-19T12:38:45.796Z,64.82
2023-02-19T12:40:00.884Z,65.35
2023-02-19T12:41:19.641Z,65.00
2023-02-19T12:42:39.283Z,64.55
2023-02-19T12:43:46.881Z,64.37
2023-02-19T12:44:54.001Z,63.85
2023-02-19T12:46:00.482Z,63.43
2023-02-19T12:47:07.632Z,63.92
2023-02-19T12:48:16.919Z,63.86
2023-02-19T12:49:27.582Z,62.99
2023-02-19T12:50:31.929Z,63.72
2023-02-19T12:51:40.650Z,63.42
2023-02-19T12:52:48.564Z,64.36
2023-02-19T12:53:56.694Z,63.12
2023-02-19T12:55:04.322Z,62.18
2023-02-19T12:56:14.690Z,63.17
2023-02-19T12:57:22.746Z,61.53
2023-02-19T12:58:30.571Z,61.34
2023-02-19T12:59:39.157Z,62.52
2023-02-19T13:00:44.651Z,61.30
2023-02-19T13:01:53.147Z,61.10
2023-02-19T13:03:01.819Z,61.70
2023-02-19T13:04:23.778Z,61.79
2023-02-19T13:05:35.594Z,60.98
2023-02-19T13:06:44.056Z,61.50
2023-02-19T13:08:00.466Z,61.47
2023-02-19T13:09:07.912Z,61.07
2023-02-19T13:10:21.893Z,60.69
2023-02-19T13:11:28.753Z,61.75
2023-02-19T13:12:36.874Z,61.45
2023-02-19T13:13:43.640Z,60.71
2023-02-19T13:14:49.117Z,61.12
2023-02-19T13:15:55.154Z,60.62
2023-02-19T13:17:02.485Z,61.38
2023-02-19T13:18:12.304Z,59.71
2023-02-19T13:19:15.258Z,59.65
2023-02-19T13:20:25.003Z,60.55
2023-02-19T13:21:49.065Z,60.91
2023-02-19T13:23:20.329Z,60.78
2023-02-19T13:24:26.321Z,60.76
2023-02-19T13:25:44.202Z,60.51
2023-02-19T13:27:01.775Z,60.79
2023-02-19T13:28:28.352Z,60.89
2023-02-19T13:29:46.615Z,60.61
2023-02-19T13:31:16.427Z,61.36
2023-02-19T13:32:45.725Z,61.90
2023-02-19T13:33:59.880Z,61.86
2023-02-19T13:35:19.964Z,61.65
2023-02-19T13:36:27.128Z,60.77
2023-02-19T13:37:32.932Z,62.04
2023-02-19T13:38:41.227Z,62.18
2023-02-19T13:39:49.951Z,61.73
2023-02-19T13:40:56.839Z,61.52
2023-02-19T13:42:00.389Z,61.61
2023-02-19T13:43:05.498Z,61.65
2023-02-19T13:44:17.191Z,61.32
2023-02-19T13:45:25.060Z,60.87
2023-02-19T13:46:36.575Z,61.39
2023-02-19T13:47:50.312Z,62.32
2023-02-19T13:49:39.939Z,62.26
2023-02-19T13:50:43.046Z,60.71
2023-02-19T13:51:51.063Z,61.53
2023-02-19T13:52:54.837Z,61.22
2023-02-19T13:54:01.062Z,61.73
2023-02-19T13:55:48.497Z,61.73
2023-02-19T13:57:12.295Z,61.33
2023-02-19T13:58:54.237Z,61.23
2023-02-19T13:59:58.012Z,60.79
2023-02-19T14:01:01.309Z,61.03
2023-02-19T14:02:23.115Z,61.21
2023-02-19T14:03:29.167Z,60.73
2023-02-19T14:04:51.804Z,61.59
2023-02-19T14:05:59.918Z,61.53
2023-02-19T14:07:37.412Z,61.86
2023-02-19T14:08:52.628Z,61.74
2023-02-19T14:09:55.939Z,61.84
2023-02-19T14:11:02.434Z,61.40
2023-02-19T14:12:17.763Z,62.32
2023-02-19T14:14:06.686Z,62.44
2023-02-19T14:15:43.875Z,61.93
2023-02-19T14:17:04.933Z,63.10
2023-02-19T14:18:40.456Z,62.76
2023-02-19T14:19:57.275Z,61.87
2023-02-19T14:21:14.017Z,62.65
2023-02-19T14:23:01.467Z,62.02
2023-02-19T14:24:06.296Z,61.72
2023-02-19T14:25:21.392Z,62.23
2023-02-19T14:26:26.347Z,61.57